Time;durP1;ratioP1;P1;durP2;ratioP2;P2;SDS_P1;SDS_P2;PMS_P1;PMS_P2;Temp;Humidity;BMP_temperature;BMP_pressure;BME280_temperature;BME280_humidity;BME280_pressure;Samples;Min_cycle;Max_cycle;Signal;HPM_P1;HPM_P2
2023/04/15 00:00:19;;;;;;;3.57;2.43;;;11.00;54.50;;;;;;5054905;28;20468;-71
2023/04/15 00:02:47;;;;;;;3.57;2.60;;;11.00;54.70;;;;;;5055829;28;20554;-71
2023/04/15 00:05:17;;;;;;;3.17;2.27;;;11.00;54.80;;;;;;5052807;28;20449;-72
2023/04/15 00:07:44;;;;;;;2.63;2.43;;;11.00;55.00;;;;;;5044711;28;20495;-72
2023/04/15 00:10:11;;;;;;;3.00;2.20;;;11.00;55.30;;;;;;5051621;28;20824;-71
2023/04/15 00:12:38;;;;;;;2.73;2.43;;;10.90;55.30;;;;;;5054650;28;20547;-71
2023/04/15 00:15:07;;;;;;;2.50;2.30;;;11.00;55.50;;;;;;5052611;28;20478;-72
2023/04/15 00:17:33;;;;;;;3.63;2.60;;;10.90;55.60;;;;;;5047549;28;20863;-72
2023/04/15 00:20:00;;;;;;;6.70;2.57;;;10.90;55.70;;;;;;5041894;28;20526;-72
2023/04/15 00:22:28;;;;;;;3.30;2.57;;;10.90;55.80;;;;;;5003004;28;20469;-72
2023/04/15 00:24:56;;;;;;;5.20;2.60;;;10.80;56.30;;;;;;5038816;28;20453;-72
2023/04/15 00:27:23;;;;;;;2.97;2.37;;;10.80;55.70;;;;;;5051729;28;21014;-72
2023/04/15 00:29:49;;;;;;;4.93;2.60;;;10.70;55.80;;;;;;5051198;28;21035;-72
2023/04/15 00:32:16;;;;;;;3.37;2.43;;;10.70;55.90;;;;;;5040858;28;20790;-72
2023/04/15 00:34:43;;;;;;;4.63;2.47;;;10.70;56.00;;;;;;5040721;28;20817;-72
2023/04/15 00:37:10;;;;;;;3.27;2.50;;;10.70;56.20;;;;;;5048262;28;20979;-72
2023/04/15 00:39:38;;;;;;;3.90;2.40;;;10.70;56.10;;;;;;5048992;28;20456;-70
2023/04/15 00:42:06;;;;;;;3.37;2.20;;;10.70;56.00;;;;;;5054794;28;20506;-72
2023/04/15 00:44:33;;;;;;;4.13;2.47;;;10.70;56.10;;;;;;5048394;28;20469;-71
2023/04/15 00:47:01;;;;;;;5.80;2.93;;;10.60;56.00;;;;;;5048509;28;20483;-72
2023/04/15 00:49:29;;;;;;;3.67;2.87;;;10.60;56.30;;;;;;5052199;28;20508;-71
2023/04/15 00:51:56;;;;;;;4.20;2.60;;;10.60;56.30;;;;;;5035100;28;20507;-72
2023/04/15 00:54:26;;;;;;;4.03;2.43;;;10.50;56.50;;;;;;5030264;28;20447;-72
2023/04/15 00:56:57;;;;;;;3.57;2.70;;;10.50;56.60;;;;;;5075830;28;20527;-71
2023/04/15 00:59:24;;;;;;;6.30;3.37;;;10.50;56.60;;;;;;5059266;28;20491;-72
2023/04/15 01:01:56;;;;;;;4.63;2.73;;;10.50;56.70;;;;;;5037434;28;20456;-72
2023/04/15 01:04:26;;;;;;;3.87;3.00;;;10.50;56.90;;;;;;5036876;28;21000;-72
2023/04/15 01:06:57;;;;;;;3.73;2.93;;;10.40;57.00;;;;;;5035481;28;20481;-71
2023/04/15 01:09:26;;;;;;;3.70;2.60;;;10.40;57.10;;;;;;5031000;28;20559;-72
2023/04/15 01:11:59;;;;;;;5.43;2.80;;;10.40;57.30;;;;;;5040965;28;20463;-72
2023/04/15 01:14:27;;;;;;;5.10;3.17;;;10.30;57.20;;;;;;5053647;28;20531;-72
2023/04/15 01:16:56;;;;;;;4.23;3.20;;;10.30;57.20;;;;;;5053729;28;20853;-72
2023/04/15 01:19:27;;;;;;;6.60;3.37;;;10.30;57.20;;;;;;5038470;28;20536;-72
2023/04/15 01:21:57;;;;;;;4.23;2.97;;;10.30;57.30;;;;;;5035053;28;20465;-72
2023/04/15 01:24:26;;;;;;;4.23;2.67;;;10.20;57.30;;;;;;5053146;28;21015;-71
2023/04/15 01:26:57;;;;;;;4.57;3.00;;;10.20;57.50;;;;;;5038167;28;20449;-72
2023/04/15 01:29:27;;;;;;;6.37;3.57;;;10.20;57.50;;;;;;5047747;28;20463;-71
2023/04/15 01:31:56;;;;;;;3.90;2.97;;;10.20;57.70;;;;;;5006367;28;20457;-72
2023/04/15 01:34:26;;;;;;;3.20;2.70;;;10.20;57.70;;;;;;5041311;28;20445;-71
2023/04/15 01:36:56;;;;;;;4.80;3.40;;;10.20;57.90;;;;;;5037517;28;20465;-71
2023/04/15 01:39:27;;;;;;;3.70;3.13;;;10.10;58.40;;;;;;5044674;28;20452;-72
2023/04/15 01:41:58;;;;;;;3.17;2.80;;;10.10;57.90;;;;;;5048661;28;20445;-71
2023/04/15 01:44:28;;;;;;;3.87;3.33;;;10.10;58.10;;;;;;5034410;28;20819;-72
2023/04/15 01:46:59;;;;;;;5.13;2.90;;;10.10;58.70;;;;;;5046044;28;20540;-71
2023/04/15 01:49:29;;;;;;;4.77;3.13;;;10.00;58.00;;;;;;5047635;28;20445;-71
2023/04/15 01:51:56;;;;;;;5.27;3.00;;;10.00;58.10;;;;;;5046118;28;20452;-72
2023/04/15 01:54:26;;;;;;;3.50;3.00;;;10.00;58.30;;;;;;5053384;28;20478;-72
2023/04/15 01:56:53;;;;;;;4.13;3.20;;;9.90;59.30;;;;;;5052859;28;20482;-71
2023/04/15 01:59:21;;;;;;;5.10;3.27;;;9.90;59.50;;;;;;5052462;28;20450;-72
2023/04/15 02:01:48;;;;;;;3.33;2.93;;;9.90;59.70;;;;;;5052860;28;20522;-72
2023/04/15 02:04:19;;;;;;;3.47;2.93;;;9.90;59.70;;;;;;5050427;28;20452;-72
2023/04/15 02:06:49;;;;;;;3.27;2.93;;;9.90;59.60;;;;;;5044447;28;20964;-71
2023/04/15 02:09:18;;;;;;;5.47;3.30;;;9.80;59.40;;;;;;5040700;28;20461;-72
2023/04/15 02:11:48;;;;;;;5.57;3.83;;;9.80;59.40;;;;;;5022054;28;20983;-72
2023/04/15 02:14:19;;;;;;;5.80;3.30;;;9.80;59.30;;;;;;5053285;28;20456;-72
2023/04/15 02:17:05;;;;;;;4.60;3.10;;;9.80;59.40;;;;;;5051763;28;20449;-73
2023/04/15 02:19:39;;;;;;;3.67;2.93;;;9.80;59.60;;;;;;5051981;28;20468;-72
2023/04/15 02:22:08;;;;;;;4.87;3.60;;;9.80;59.60;;;;;;5046871;28;20548;-72
2023/04/15 02:24:41;;;;;;;4.90;3.77;;;9.80;59.60;;;;;;5014675;28;20506;-73
2023/04/15 02:27:11;;;;;;;4.00;3.47;;;9.80;59.60;;;;;;5037618;28;20482;-70
2023/04/15 02:29:40;;;;;;;6.63;3.10;;;9.80;59.60;;;;;;5023303;28;20457;-70
2023/04/15 02:32:10;;;;;;;5.77;3.53;;;9.80;59.60;;;;;;5041319;28;20495;-73
2023/04/15 02:34:40;;;;;;;3.93;3.33;;;9.80;59.50;;;;;;5043377;28;20820;-71
2023/04/15 02:37:10;;;;;;;3.63;3.23;;;9.80;59.60;;;;;;5032661;28;20465;-73
2023/04/15 02:39:38;;;;;;;4.77;3.23;;;9.70;59.70;;;;;;5046668;28;20452;-72
2023/04/15 02:42:06;;;;;;;4.37;3.50;;;9.70;60.20;;;;;;5046019;28;20545;-72
2023/04/15 02:44:37;;;;;;;6.70;3.57;;;9.70;60.20;;;;;;5032492;28;20469;-72
2023/04/15 02:47:06;;;;;;;4.43;3.30;;;9.60;60.10;;;;;;5036892;28;20483;-72
2023/04/15 02:49:37;;;;;;;4.67;3.57;;;9.60;60.20;;;;;;5051841;28;20455;-71
2023/04/15 02:52:08;;;;;;;4.83;3.60;;;9.50;60.40;;;;;;5045911;28;20450;-70
2023/04/15 02:54:41;;;;;;;5.60;3.50;;;9.50;60.40;;;;;;5046128;28;20468;-70
2023/04/15 02:57:11;;;;;;;4.53;3.67;;;9.50;60.40;;;;;;5016347;28;20478;-71
2023/04/15 02:59:41;;;;;;;4.67;3.70;;;9.50;60.30;;;;;;5051293;28;20452;-71
2023/04/15 03:02:11;;;;;;;5.43;3.40;;;9.50;60.20;;;;;;5051450;28;20466;-72
2023/04/15 03:04:39;;;;;;;4.00;3.43;;;9.50;60.20;;;;;;5049885;28;20445;-72
2023/04/15 03:07:16;;;;;;;4.97;3.17;;;9.50;60.20;;;;;;5046621;28;20483;-71
2023/04/15 03:09:44;;;;;;;5.10;3.63;;;9.50;60.00;;;;;;5032260;28;20531;-71
2023/04/15 03:12:14;;;;;;;6.00;3.53;;;9.50;60.00;;;;;;5032816;28;20459;-73
2023/04/15 03:14:43;;;;;;;5.53;3.53;;;9.50;60.10;;;;;;5040318;28;20457;-72
2023/04/15 03:17:13;;;;;;;3.90;3.50;;;9.40;60.10;;;;;;5041353;28;20445;-72
2023/04/15 03:19:41;;;;;;;4.70;3.40;;;9.50;60.50;;;;;;5057378;28;20456;-72
2023/04/15 03:22:08;;;;;;;4.93;4.43;;;9.40;60.20;;;;;;5058892;28;20461;-71
2023/04/15 03:24:38;;;;;;;4.37;3.97;;;9.30;59.80;;;;;;5075869;28;20491;-71
2023/04/15 03:27:06;;;;;;;5.03;3.47;;;9.30;59.90;;;;;;5075993;28;20483;-71
2023/04/15 03:29:37;;;;;;;4.40;3.40;;;9.30;59.90;;;;;;5052626;28;20485;-70
2023/04/15 03:32:04;;;;;;;4.20;3.80;;;9.20;60.10;;;;;;5046193;28;20495;-70
2023/04/15 03:34:31;;;;;;;4.20;3.80;;;9.20;60.10;;;;;;5033331;28;20496;-71
2023/04/15 03:37:01;;;;;;;5.80;3.57;;;9.20;60.00;;;;;;5051650;28;20454;-70
2023/04/15 03:39:31;;;;;;;6.30;3.50;;;9.20;60.20;;;;;;5050980;28;20503;-71
2023/04/15 03:42:02;;;;;;;3.77;3.47;;;9.20;60.10;;;;;;5034975;28;20453;-71
2023/04/15 03:44:32;;;;;;;5.10;3.37;;;9.20;60.30;;;;;;5017210;28;20479;-71
2023/04/15 03:47:02;;;;;;;3.60;3.30;;;9.20;60.20;;;;;;5047990;28;20530;-72
2023/04/15 03:49:31;;;;;;;4.97;3.20;;;9.10;60.30;;;;;;5051511;28;20491;-71
2023/04/15 03:52:00;;;;;;;3.83;3.27;;;9.10;61.30;;;;;;5051187;28;20963;-71
2023/04/15 03:54:31;;;;;;;4.30;3.60;;;9.10;60.40;;;;;;5034633;28;20556;-71
2023/04/15 03:57:01;;;;;;;5.17;3.40;;;9.10;60.20;;;;;;5032196;28;20469;-71
2023/04/15 03:59:30;;;;;;;3.63;3.07;;;9.10;60.30;;;;;;5037724;28;20506;-70
2023/04/15 04:02:00;;;;;;;4.93;3.13;;;9.10;60.20;;;;;;5050994;28;20440;-72
2023/04/15 04:04:31;;;;;;;4.33;3.27;;;9.10;60.30;;;;;;5050745;28;20929;-72
2023/04/15 04:07:02;;;;;;;4.63;3.27;;;9.00;61.00;;;;;;5038921;28;20453;-71
2023/04/15 04:09:33;;;;;;;3.60;3.03;;;9.00;60.30;;;;;;5051620;28;20484;-71
2023/04/15 04:12:01;;;;;;;3.33;3.00;;;9.00;60.50;;;;;;5036229;28;20456;-70
2023/04/15 04:14:30;;;;;;;3.77;2.43;;;8.90;60.60;;;;;;5047583;28;20460;-71
2023/04/15 04:17:00;;;;;;;3.47;2.87;;;8.90;60.60;;;;;;5037624;28;20459;-71
2023/04/15 04:19:30;;;;;;;3.53;2.60;;;8.80;60.70;;;;;;5037950;28;20531;-72
2023/04/15 04:21:57;;;;;;;5.13;2.80;;;8.80;60.80;;;;;;5055661;28;21058;-71
2023/04/15 04:24:26;;;;;;;5.10;3.20;;;8.80;61.60;;;;;;5053484;28;20448;-71
2023/04/15 04:26:56;;;;;;;3.77;3.40;;;8.80;61.00;;;;;;5047596;28;20479;-71
2023/04/15 04:29:25;;;;;;;4.07;3.40;;;8.80;61.20;;;;;;5050277;28;20488;-70
2023/04/15 04:31:55;;;;;;;3.83;3.43;;;8.70;60.80;;;;;;5072855;28;20463;-73
2023/04/15 04:34:24;;;;;;;3.73;3.30;;;8.70;61.00;;;;;;5054561;28;20536;-72
2023/04/15 04:36:54;;;;;;;3.53;2.97;;;8.70;61.10;;;;;;5053378;28;20472;-71
2023/04/15 04:39:31;;;;;;;4.37;3.30;;;8.70;61.10;;;;;;5037288;28;20460;-71
2023/04/15 04:42:01;;;;;;;6.73;3.47;;;8.60;61.30;;;;;;5002840;28;20469;-71
2023/04/15 04:44:30;;;;;;;5.10;3.10;;;8.70;61.70;;;;;;5037741;28;20457;-71
2023/04/15 04:46:57;;;;;;;4.63;3.27;;;8.70;61.70;;;;;;5006852;28;20452;-72
2023/04/15 04:49:28;;;;;;;4.20;3.10;;;8.70;61.40;;;;;;5047888;28;20491;-71
2023/04/15 04:51:57;;;;;;;3.27;2.97;;;8.70;61.40;;;;;;5042852;28;20542;-72
2023/04/15 04:54:29;;;;;;;5.27;3.53;;;8.70;61.30;;;;;;5044067;28;20451;-71
2023/04/15 04:56:57;;;;;;;4.03;3.40;;;8.70;61.30;;;;;;5053132;28;20473;-71
2023/04/15 04:59:27;;;;;;;5.47;3.30;;;8.70;61.70;;;;;;5037985;28;20516;-70
2023/04/15 05:01:54;;;;;;;4.30;3.27;;;8.70;61.80;;;;;;5051752;28;20856;-71
2023/04/15 05:04:25;;;;;;;5.27;3.10;;;8.70;61.70;;;;;;5050617;28;20454;-70
2023/04/15 05:06:54;;;;;;;2.73;2.50;;;8.60;61.40;;;;;;5053227;28;20457;-71
2023/04/15 05:09:21;;;;;;;3.40;3.10;;;8.60;61.50;;;;;;5054001;28;20487;-71
2023/04/15 05:11:55;;;;;;;3.60;2.90;;;8.60;61.60;;;;;;5053159;28;20502;-71
2023/04/15 05:14:25;;;;;;;3.80;3.17;;;8.60;61.70;;;;;;5053831;28;20531;-71
2023/04/15 05:16:55;;;;;;;4.63;3.00;;;8.60;61.90;;;;;;5047424;28;20527;-71
2023/04/15 05:19:25;;;;;;;4.40;3.33;;;8.60;61.90;;;;;;5049859;28;20445;-70
2023/04/15 05:21:55;;;;;;;4.17;3.20;;;8.70;61.90;;;;;;5020944;28;20567;-72
2023/04/15 05:24:24;;;;;;;5.93;3.33;;;8.70;62.30;;;;;;5053094;28;20545;-71
2023/04/15 05:26:55;;;;;;;3.63;2.80;;;8.70;62.30;;;;;;5045184;28;20465;-72
2023/04/15 05:29:26;;;;;;;5.63;3.60;;;8.80;62.50;;;;;;5044540;28;20531;-71
2023/04/15 05:31:55;;;;;;;4.87;2.93;;;8.80;62.50;;;;;;5051331;28;20448;-70
2023/04/15 05:34:25;;;;;;;3.90;3.23;;;8.80;62.40;;;;;;5049299;28;20895;-70
2023/04/15 05:36:54;;;;;;;4.43;3.20;;;8.80;62.40;;;;;;5047048;28;20473;-71
2023/04/15 05:39:23;;;;;;;4.90;3.10;;;8.80;62.40;;;;;;5033458;28;20445;-71
2023/04/15 05:41:55;;;;;;;3.20;2.90;;;8.80;63.20;;;;;;5043643;28;20449;-73
2023/04/15 05:44:25;;;;;;;5.30;3.43;;;8.90;63.40;;;;;;5051230;28;20456;-70
2023/04/15 05:46:57;;;;;;;3.67;2.90;;;8.90;62.50;;;;;;5037191;28;20545;-70
2023/04/15 05:49:25;;;;;;;4.37;3.03;;;8.90;62.40;;;;;;5051333;28;20492;-71
2023/04/15 05:51:55;;;;;;;3.63;3.10;;;8.90;62.60;;;;;;5046755;28;20479;-72
2023/04/15 05:54:26;;;;;;;6.33;4.67;;;9.00;62.60;;;;;;5043176;28;20449;-71
2023/04/15 05:56:58;;;;;;;9.93;6.47;;;9.00;62.20;;;;;;5033206;28;21172;-72
2023/04/15 05:59:27;;;;;;;7.40;5.23;;;9.00;62.30;;;;;;5052812;28;20520;-72
2023/04/15 06:01:56;;;;;;;7.07;4.67;;;9.10;62.40;;;;;;5045189;28;20453;-72
2023/04/15 06:04:27;;;;;;;7.50;4.30;;;9.10;62.60;;;;;;5040297;28;20453;-72
2023/04/15 06:06:56;;;;;;;7.50;5.63;;;9.20;62.80;;;;;;5052655;28;20449;-72
2023/04/15 06:09:27;;;;;;;5.80;5.10;;;9.30;63.00;;;;;;5048381;28;20589;-72
2023/04/15 06:11:56;;;;;;;4.67;4.20;;;9.30;62.90;;;;;;5047096;28;20843;-71
2023/04/15 06:14:26;;;;;;;7.70;4.00;;;9.40;63.10;;;;;;5043972;28;20547;-71
2023/04/15 06:16:55;;;;;;;4.83;3.40;;;9.50;63.40;;;;;;5051226;28;20595;-72
2023/04/15 06:19:25;;;;;;;5.37;3.53;;;9.60;63.10;;;;;;5045977;28;20441;-71
2023/04/15 06:21:55;;;;;;;5.50;3.40;;;9.60;63.10;;;;;;5035307;28;20449;-72
2023/04/15 06:24:25;;;;;;;4.20;3.23;;;9.70;62.80;;;;;;5035076;28;20452;-72
2023/04/15 06:26:54;;;;;;;4.10;3.43;;;9.70;62.80;;;;;;5043658;28;20548;-72
2023/04/15 06:29:25;;;;;;;6.20;3.40;;;9.80;62.80;;;;;;5037205;28;20487;-73
2023/04/15 06:31:55;;;;;;;4.53;3.40;;;9.90;62.70;;;;;;5051675;28;20547;-71
2023/04/15 06:34:25;;;;;;;5.73;3.23;;;9.90;62.60;;;;;;5043638;28;20450;-72
2023/04/15 06:36:55;;;;;;;5.17;3.50;;;10.00;61.70;;;;;;5048386;28;20551;-72
2023/04/15 06:39:25;;;;;;;3.50;3.20;;;10.20;62.10;;;;;;5052084;28;21013;-72
2023/04/15 06:41:55;;;;;;;4.00;3.23;;;10.20;61.90;;;;;;5052643;28;20443;-73
2023/04/15 06:44:26;;;;;;;4.03;3.17;;;10.40;61.80;;;;;;5039192;28;20465;-72
2023/04/15 06:46:56;;;;;;;3.73;3.10;;;10.50;61.70;;;;;;5041689;28;20448;-72
2023/04/15 06:49:26;;;;;;;5.70;3.47;;;10.50;61.60;;;;;;5040595;28;21003;-72
2023/04/15 06:51:56;;;;;;;4.53;3.40;;;10.60;61.00;;;;;;5037392;28;20472;-72
2023/04/15 06:54:23;;;;;;;4.33;3.53;;;10.70;60.50;;;;;;5043493;28;20461;-72
2023/04/15 06:56:53;;;;;;;6.07;3.17;;;10.80;60.30;;;;;;5034389;28;20864;-71
2023/04/15 06:59:24;;;;;;;5.10;3.30;;;10.80;60.20;;;;;;5039902;28;20523;-71
2023/04/15 07:01:50;;;;;;;3.90;3.03;;;10.90;60.30;;;;;;5039416;28;20488;-70
2023/04/15 07:04:19;;;;;;;5.53;3.20;;;11.00;60.40;;;;;;5043985;28;21143;-70
2023/04/15 07:06:49;;;;;;;4.17;2.93;;;11.10;60.50;;;;;;5038717;28;20453;-70
2023/04/15 07:09:23;;;;;;;3.33;3.03;;;11.20;61.40;;;;;;5031708;28;20578;-71
2023/04/15 07:11:53;;;;;;;4.83;2.90;;;11.30;61.40;;;;;;5043831;28;20862;-71
2023/04/15 07:14:26;;;;;;;4.40;2.80;;;11.50;61.30;;;;;;5051450;28;20867;-72
2023/04/15 07:16:56;;;;;;;2.97;2.47;;;11.50;61.00;;;;;;5050324;28;20546;-69
2023/04/15 07:19:26;;;;;;;4.60;2.40;;;11.70;60.90;;;;;;5034315;28;20864;-71
2023/04/15 07:21:55;;;;;;;4.17;2.43;;;11.80;60.40;;;;;;5033994;28;20476;-71
2023/04/15 07:24:25;;;;;;;5.33;2.33;;;11.90;59.60;;;;;;5123456;22;21004;-71
2023/04/15 07:26:52;;;;;;;3.60;2.40;;;12.00;59.20;;;;;;5057492;28;20472;-73
2023/04/15 07:29:19;;;;;;;3.57;2.40;;;12.10;59.60;;;;;;5053459;28;20491;-72
2023/04/15 07:31:47;;;;;;;3.77;2.27;;;12.20;58.90;;;;;;5056464;28;20851;-71
2023/04/15 07:34:15;;;;;;;4.83;2.30;;;12.30;58.50;;;;;;5051321;28;20479;-72
2023/04/15 07:36:42;;;;;;;4.97;2.40;;;12.50;58.40;;;;;;5051359;28;20881;-72
2023/04/15 07:39:09;;;;;;;4.40;2.40;;;12.50;58.60;;;;;;5051467;28;20455;-72
2023/04/15 07:41:36;;;;;;;3.23;2.90;;;12.60;58.60;;;;;;5051158;28;20448;-73
2023/04/15 07:44:02;;;;;;;2.60;2.40;;;12.80;58.40;;;;;;5051003;28;20491;-72
2023/04/15 07:46:31;;;;;;;4.33;2.70;;;12.80;57.80;;;;;;5051159;28;20452;-72
2023/04/15 07:48:59;;;;;;;5.60;2.70;;;13.00;58.00;;;;;;5055052;28;20486;-72
2023/04/15 07:51:26;;;;;;;4.50;3.13;;;13.10;58.20;;;;;;5055634;28;20445;-72
2023/04/15 07:53:53;;;;;;;3.27;2.17;;;13.20;58.00;;;;;;5055296;28;20954;-72
2023/04/15 07:56:20;;;;;;;3.83;2.40;;;13.30;57.60;;;;;;5054854;28;20478;-72
2023/04/15 07:58:47;;;;;;;2.97;2.23;;;13.40;58.00;;;;;;5055855;28;20448;-72
2023/04/15 08:01:14;;;;;;;3.43;2.40;;;13.50;57.70;;;;;;5054320;28;20444;-72
2023/04/15 08:03:41;;;;;;;3.23;2.57;;;13.70;57.60;;;;;;5055326;28;20830;-71
2023/04/15 08:06:10;;;;;;;4.37;2.77;;;13.80;57.50;;;;;;5060383;28;20841;-73
2023/04/15 08:08:36;;;;;;;5.70;3.00;;;13.90;57.20;;;;;;5075271;28;20447;-72
2023/04/15 08:11:03;;;;;;;4.30;2.90;;;14.00;56.80;;;;;;5067404;28;20585;-72
2023/04/15 08:13:30;;;;;;;7.10;3.43;;;14.10;56.90;;;;;;5070245;28;20509;-72
2023/04/15 08:16:19;;;;;;;3.57;2.87;;;14.20;56.00;;;;;;5073890;28;20561;-72
2023/04/15 08:18:46;;;;;;;3.70;3.03;;;14.20;55.60;;;;;;5055299;28;20455;-71
2023/04/15 08:21:14;;;;;;;5.43;3.13;;;14.30;55.30;;;;;;5054571;28;20452;-73
2023/04/15 08:23:41;;;;;;;4.63;3.23;;;14.40;55.70;;;;;;5056324;28;20468;-73
2023/04/15 08:26:08;;;;;;;4.03;3.00;;;14.50;56.10;;;;;;5058506;28;20475;-73
2023/04/15 08:28:35;;;;;;;4.47;2.80;;;14.70;56.40;;;;;;5067377;28;20467;-73
2023/04/15 08:31:02;;;;;;;6.20;3.17;;;14.80;56.00;;;;;;5069087;28;20511;-73
2023/04/15 08:33:29;;;;;;;6.40;2.97;;;14.90;56.80;;;;;;5071180;28;20987;-73
2023/04/15 08:35:56;;;;;;;6.00;3.57;;;15.10;57.00;;;;;;5061509;28;20473;-74
2023/04/15 08:38:24;;;;;;;7.43;3.93;;;15.30;56.90;;;;;;5070762;28;20448;-71
2023/04/15 08:40:51;;;;;;;6.23;3.70;;;15.40;56.40;;;;;;5064229;28;20935;-71
2023/04/15 08:43:23;;;;;;;7.90;3.67;;;15.60;56.10;;;;;;5065782;28;20468;-70
2023/04/15 08:45:51;;;;;;;6.57;3.90;;;15.70;54.80;;;;;;5066501;28;20870;-70
2023/04/15 08:48:18;;;;;;;7.33;3.60;;;15.80;54.50;;;;;;5074440;28;20471;-70
2023/04/15 08:50:47;;;;;;;7.80;3.90;;;16.00;55.40;;;;;;5070423;28;20483;-70
2023/04/15 08:53:14;;;;;;;3.97;3.13;;;16.10;53.80;;;;;;5056529;28;20460;-70
2023/04/15 08:55:46;;;;;;;7.13;3.60;;;16.10;52.60;;;;;;5054726;28;20838;-71
2023/04/15 08:58:14;;;;;;;5.20;3.40;;;16.20;52.70;;;;;;5058274;28;20968;-70
2023/04/15 09:00:42;;;;;;;5.77;3.30;;;16.30;52.50;;;;;;5067369;28;20475;-72
2023/04/15 09:03:09;;;;;;;4.57;3.27;;;16.40;52.60;;;;;;5061593;28;20447;-72
2023/04/15 09:05:36;;;;;;;4.37;3.10;;;16.60;53.40;;;;;;5074562;28;20443;-72
2023/04/15 09:08:04;;;;;;;6.13;3.77;;;16.70;53.50;;;;;;5065668;28;20499;-75
2023/04/15 09:10:32;;;;;;;5.37;3.03;;;16.90;53.20;;;;;;5062241;28;20529;-74
2023/04/15 09:13:01;;;;;;;6.13;2.83;;;16.90;53.10;;;;;;5054774;28;20449;-74
2023/04/15 09:15:29;;;;;;;6.30;2.90;;;17.10;53.30;;;;;;5054575;28;20480;-75
2023/04/15 09:17:56;;;;;;;4.43;2.47;;;17.20;53.20;;;;;;5059053;28;20456;-76
2023/04/15 09:20:23;;;;;;;6.70;2.73;;;17.30;53.10;;;;;;5056562;28;20444;-75
2023/04/15 09:22:52;;;;;;;4.27;3.07;;;17.40;52.90;;;;;;5073652;28;20574;-74
2023/04/15 09:25:29;;;;;;;5.60;2.47;;;17.50;53.30;;;;;;5039030;28;20475;-76
2023/04/15 09:27:58;;;;;;;4.30;2.07;;;17.60;52.40;;;;;;5064473;28;20446;-75
2023/04/15 09:30:28;;;;;;;5.37;2.90;;;17.70;52.70;;;;;;5070317;28;20491;-76
2023/04/15 09:32:56;;;;;;;4.37;2.83;;;17.70;52.20;;;;;;5068434;28;20444;-76
2023/04/15 09:35:24;;;;;;;4.63;2.60;;;17.80;52.20;;;;;;5074358;28;20534;-75
2023/04/15 09:37:52;;;;;;;4.00;2.43;;;17.90;52.20;;;;;;5074463;28;20453;-75
2023/04/15 09:40:32;;;;;;;4.83;2.97;;;17.90;52.10;;;;;;5058476;28;20527;-75
2023/04/15 09:43:00;;;;;;;4.40;2.67;;;18.00;52.10;;;;;;5073846;28;20494;-75
2023/04/15 09:45:29;;;;;;;5.07;3.03;;;18.10;52.20;;;;;;5054409;28;20463;-77
2023/04/15 09:47:58;;;;;;;4.57;2.90;;;18.10;52.10;;;;;;5056948;28;20515;-76
2023/04/15 09:50:28;;;;;;;3.70;2.90;;;18.20;52.00;;;;;;5053352;28;20483;-75
2023/04/15 09:52:56;;;;;;;3.77;3.40;;;18.30;52.00;;;;;;5053456;28;20463;-75
2023/04/15 09:55:23;;;;;;;3.83;3.30;;;18.30;51.80;;;;;;5053444;28;20506;-74
2023/04/15 09:57:50;;;;;;;7.17;3.33;;;18.40;51.70;;;;;;5053267;28;20308;-76
2023/04/15 10:00:18;;;;;;;4.10;3.40;;;18.40;51.30;;;;;;5053558;28;20455;-76
2023/04/15 10:02:48;;;;;;;5.53;3.23;;;18.50;51.60;;;;;;5054021;28;20906;-75
2023/04/15 10:05:16;;;;;;;7.67;3.57;;;18.50;52.10;;;;;;5053571;28;20464;-75
2023/04/15 10:07:43;;;;;;;7.13;3.40;;;18.50;52.30;;;;;;5053152;28;20214;-75
2023/04/15 10:10:12;;;;;;;5.00;3.80;;;18.60;52.20;;;;;;5052177;28;20590;-75
2023/04/15 10:12:41;;;;;;;3.57;3.00;;;18.60;51.70;;;;;;5053578;28;20209;-75
2023/04/15 10:15:14;;;;;;;5.80;3.53;;;18.70;51.50;;;;;;5053636;28;20213;-75
2023/04/15 10:17:44;;;;;;;5.23;3.37;;;18.80;51.10;;;;;;5053275;28;20218;-75
2023/04/15 10:20:14;;;;;;;11.63;6.07;;;18.90;50.70;;;;;;5052997;28;20193;-75
2023/04/15 10:22:43;;;;;;;9.67;5.00;;;19.00;50.70;;;;;;5068879;28;20550;-77
2023/04/15 10:25:12;;;;;;;5.57;3.43;;;19.10;50.50;;;;;;5073009;28;20422;-76
2023/04/15 10:27:40;;;;;;;6.37;3.20;;;19.20;50.80;;;;;;5059435;28;20484;-74
2023/04/15 10:30:09;;;;;;;4.03;3.30;;;19.20;49.50;;;;;;5052944;28;20228;-75
2023/04/15 10:32:36;;;;;;;4.60;3.40;;;19.40;50.20;;;;;;5063440;28;20477;-76
2023/04/15 10:35:03;;;;;;;6.90;4.50;;;19.50;50.80;;;;;;5068718;28;20193;-74
2023/04/15 10:37:37;;;;;;;8.47;4.40;;;19.50;49.40;;;;;;5064339;28;20201;-76
2023/04/15 10:40:27;;;;;;;5.63;3.80;;;19.60;50.10;;;;;;5072313;28;20675;-75
2023/04/15 10:42:55;;;;;;;8.63;3.97;;;19.80;49.80;;;;;;5058177;28;20321;-75
2023/04/15 10:45:22;;;;;;;9.20;3.70;;;20.00;50.00;;;;;;5057613;28;20455;-76
2023/04/15 10:47:54;;;;;;;9.37;3.90;;;20.10;49.90;;;;;;5057223;28;20293;-75
2023/04/15 10:50:21;;;;;;;8.57;4.20;;;20.30;48.70;;;;;;5056463;28;20229;-76
2023/04/15 10:52:51;;;;;;;8.07;3.70;;;20.30;48.60;;;;;;5075080;28;20248;-80
2023/04/15 10:55:20;;;;;;;12.10;5.10;;;20.40;48.40;;;;;;5059002;28;20294;-77
2023/04/15 10:57:51;;;;;;;31.17;10.13;;;20.50;48.30;;;;;;5077919;28;20197;-77
2023/04/15 11:00:20;;;;;;;18.00;6.83;;;20.60;48.80;;;;;;5075831;28;20221;-79
2023/04/15 11:02:48;;;;;;;34.70;11.43;;;20.60;47.80;;;;;;5062111;28;20208;-79
2023/04/15 11:05:16;;;;;;;7.27;3.80;;;20.70;47.60;;;;;;5073074;28;20228;-80
2023/04/15 11:07:53;;;;;;;4.23;2.93;;;20.70;47.40;;;;;;5067549;28;20205;-78
2023/04/15 11:10:53;;;;;;;6.63;3.50;;;20.70;46.90;;;;;;5060940;28;20304;-79
2023/04/15 11:13:37;;;;;;;6.27;3.10;;;20.70;46.70;;;;;;5073536;28;20201;-75
2023/04/15 11:16:04;;;;;;;46.50;16.20;;;20.60;46.30;;;;;;5073064;28;20688;-79
2023/04/15 11:18:33;;;;;;;25.30;8.87;;;20.50;46.80;;;;;;5072625;28;20259;-76
2023/04/15 11:21:03;;;;;;;7.93;4.17;;;20.50;46.90;;;;;;5053195;28;20300;-79
2023/04/15 11:23:35;;;;;;;3.63;2.97;;;20.50;46.60;;;;;;5053982;28;20224;-80
2023/04/15 11:26:08;;;;;;;4.07;3.43;;;20.50;46.60;;;;;;5063848;28;20226;-80
2023/04/15 11:28:35;;;;;;;5.10;3.77;;;20.60;47.00;;;;;;5072164;28;20221;-78
2023/04/15 11:31:09;;;;;;;8.43;3.63;;;20.70;46.70;;;;;;5062013;28;20225;-79
2023/04/15 11:33:36;;;;;;;5.67;3.10;;;20.80;46.30;;;;;;5053211;28;20255;-80
2023/04/15 11:36:04;;;;;;;6.87;3.00;;;20.90;45.80;;;;;;5058091;28;20284;-79
2023/04/15 11:38:33;;;;;;;3.57;3.20;;;20.90;45.90;;;;;;5053104;28;20570;-79
2023/04/15 11:41:00;;;;;;;4.13;3.60;;;21.00;46.10;;;;;;5064321;28;20204;-79
2023/04/15 11:43:32;;;;;;;26.37;10.50;;;21.10;46.40;;;;;;5066921;28;20290;-79
2023/04/15 11:46:01;;;;;;;30.97;11.37;;;21.20;47.10;;;;;;5057931;28;20198;-78
2023/04/15 11:48:29;;;;;;;6.80;3.90;;;21.20;46.60;;;;;;5052521;28;20297;-79
2023/04/15 11:50:58;;;;;;;5.93;3.97;;;21.20;46.20;;;;;;5053461;28;20316;-76
2023/04/15 11:53:40;;;;;;;3.50;2.70;;;21.30;46.40;;;;;;5067630;28;20284;-78
2023/04/15 11:56:09;;;;;;;4.80;2.87;;;21.40;45.70;;;;;;5061701;28;20215;-72
2023/04/15 11:58:38;;;;;;;3.73;2.53;;;21.50;45.50;;;;;;5071062;28;20244;-72
2023/04/15 12:01:06;;;;;;;3.80;2.60;;;21.60;45.20;;;;;;5061370;28;20194;-72
2023/04/15 12:03:37;;;;;;;3.50;2.30;;;21.70;44.30;;;;;;5051612;28;20246;-72
2023/04/15 12:06:07;;;;;;;3.60;2.70;;;21.70;44.30;;;;;;5070966;28;20639;-72
2023/04/15 12:08:59;;;;;;;5.57;3.07;;;21.70;43.60;;;;;;5063005;28;20259;-70
2023/04/15 12:11:44;;;;;;;3.67;2.77;;;21.80;45.30;;;;;;5062191;28;20252;-71
2023/04/15 12:14:15;;;;;;;17.10;6.03;;;21.90;46.30;;;;;;5072524;28;20197;-71
2023/04/15 12:16:44;;;;;;;17.70;6.50;;;22.20;47.30;;;;;;5067833;28;20287;-71
2023/04/15 12:19:13;;;;;;;23.43;8.60;;;22.40;47.10;;;;;;5055495;28;20222;-71
2023/04/15 12:21:42;;;;;;;21.13;8.37;;;22.70;45.90;;;;;;5067199;28;20630;-70
2023/04/15 12:24:12;;;;;;;11.07;4.50;;;22.80;44.30;;;;;;5070719;28;20213;-71
2023/04/15 12:26:44;;;;;;;15.53;4.93;;;22.80;42.70;;;;;;5064943;28;20236;-71
2023/04/15 12:29:13;;;;;;;8.60;3.43;;;22.90;42.40;;;;;;5051567;28;20231;-70
2023/04/15 12:31:49;;;;;;;5.93;3.07;;;22.80;41.00;;;;;;5051797;28;20592;-75
2023/04/15 12:34:16;;;;;;;5.50;2.63;;;22.60;38.10;;;;;;5057528;28;20223;-73
2023/04/15 12:36:43;;;;;;;6.30;2.90;;;22.50;38.90;;;;;;5071189;28;20198;-72
2023/04/15 12:39:11;;;;;;;4.10;2.67;;;22.60;38.50;;;;;;5059378;28;20316;-72
2023/04/15 12:41:38;;;;;;;5.70;2.53;;;22.70;37.10;;;;;;5069487;28;20207;-71
2023/04/15 12:44:05;;;;;;;6.33;3.27;;;22.80;38.40;;;;;;5074088;28;20239;-72
2023/04/15 12:46:33;;;;;;;3.70;2.70;;;22.90;38.60;;;;;;5073828;28;20248;-72
2023/04/15 12:49:00;;;;;;;3.63;2.80;;;23.00;38.50;;;;;;5064769;28;20206;-71
2023/04/15 12:51:27;;;;;;;5.80;2.83;;;23.00;37.30;;;;;;5069873;28;20616;-72
2023/04/15 12:53:54;;;;;;;46.40;14.43;;;23.00;37.50;;;;;;5067444;28;20197;-72
2023/04/15 12:56:22;;;;;;;26.30;9.30;;;23.00;39.20;;;;;;5057955;28;20222;-71
2023/04/15 12:58:50;;;;;;;19.87;8.40;;;22.90;38.60;;;;;;5054787;28;20202;-72
2023/04/15 13:01:17;;;;;;;13.40;5.17;;;22.80;38.30;;;;;;5058763;28;20205;-72